createdAt,value
2018-05-03T00:01:16.525Z,80.71
2018-05-03T00:03:42.396Z,80.18
2018-05-03T00:06:08.284Z,80.29
2018-05-03T00:08:34.133Z,80.21
2018-05-03T00:11:00.006Z,79.42
2018-05-03T00:13:25.856Z,79.91
2018-05-03T00:15:51.758Z,78.92
2018-05-03T00:18:17.733Z,78.46
2018-05-03T00:20:43.593Z,78.21
2018-05-03T00:23:09.449Z,79.60
2018-05-03T00:25:35.275Z,80.25
2018-05-03T00:28:01.103Z,81.08
2018-05-03T00:30:26.961Z,80.74
2018-05-03T00:32:52.808Z,81.67
2018-05-03T00:35:18.683Z,82.14
2018-05-03T00:37:44.532Z,83.22
2018-05-03T00:40:10.349Z,83.18
2018-05-03T00:42:36.208Z,83.14
2018-05-03T00:45:02.080Z,83.80
2018-05-03T00:47:27.966Z,84.02
2018-05-03T00:49:53.807Z,84.42
2018-05-03T00:52:19.672Z,84.90
2018-05-03T00:54:47.565Z,85.80
2018-05-03T00:57:13.470Z,86.05
2018-05-03T00:59:39.334Z,86.51
2018-05-03T01:02:05.213Z,87.06
2018-05-03T01:04:31.059Z,87.15
2018-05-03T01:06:56.888Z,87.61
2018-05-03T01:09:22.767Z,87.17
2018-05-03T01:11:48.644Z,87.39
2018-05-03T01:14:14.520Z,87.68
2018-05-03T01:16:40.393Z,87.67
2018-05-03T01:19:06.256Z,88.11
2018-05-03T01:21:32.114Z,88.33
2018-05-03T01:23:57.976Z,88.36
2018-05-03T01:26:23.805Z,88.69
2018-05-03T01:28:49.664Z,88.38
2018-05-03T01:31:15.532Z,87.92
2018-05-03T01:33:41.371Z,88.69
2018-05-03T01:36:19.628Z,88.01
2018-05-03T01:38:45.500Z,87.32
2018-05-03T01:41:11.369Z,88.31
2018-05-03T01:43:37.213Z,88.52
2018-05-03T01:46:03.091Z,88.58
2018-05-03T01:48:28.971Z,88.14
2018-05-03T01:50:54.848Z,88.67
2018-05-03T01:53:20.704Z,87.90
2018-05-03T01:55:46.560Z,88.51
2018-05-03T01:58:12.429Z,88.00
2018-05-03T02:00:38.314Z,87.44
2018-05-03T02:03:04.192Z,86.52
2018-05-03T02:05:30.049Z,86.40
2018-05-03T02:07:55.916Z,85.46
2018-05-03T02:10:21.745Z,85.00
2018-05-03T02:12:47.569Z,85.06
2018-05-03T02:15:13.429Z,85.24
2018-05-03T02:17:39.322Z,85.42
2018-05-03T02:20:05.180Z,85.65
2018-05-03T02:22:31.073Z,86.26
2018-05-03T02:24:56.933Z,86.38
2018-05-03T02:27:22.777Z,86.84
2018-05-03T02:29:48.629Z,86.01
2018-05-03T02:32:14.450Z,86.49
2018-05-03T02:34:40.359Z,86.29
2018-05-03T02:37:06.209Z,86.62
2018-05-03T02:39:32.063Z,86.56
2018-05-03T02:41:57.905Z,86.20
2018-05-03T02:44:23.780Z,86.89
2018-05-03T02:46:49.642Z,85.82
2018-05-03T02:49:15.475Z,86.85
2018-05-03T02:51:41.350Z,87.02
2018-05-03T02:54:07.209Z,85.54
2018-05-03T02:56:33.058Z,84.64
2018-05-03T02:59:11.393Z,83.90
2018-05-03T03:01:56.447Z,83.96
2018-05-03T03:04:40.862Z,84.00
2018-05-03T03:10:52.981Z,84.85
2018-05-03T03:13:35.272Z,85.62
2018-05-03T03:16:19.640Z,86.34
2018-05-03T03:19:04.105Z,87.08
2018-05-03T03:21:48.639Z,87.10
2018-05-03T03:24:33.071Z,86.20
2018-05-03T03:30:31.940Z,86.49
2018-05-03T03:33:10.109Z,86.97
2018-05-03T03:39:05.236Z,87.63
2018-05-03T03:41:37.196Z,87.28
2018-05-03T03:44:15.431Z,87.78
2018-05-03T03:46:42.221Z,86.79
2018-05-03T03:49:08.520Z,86.65
2018-05-03T03:51:34.399Z,87.55
2018-05-03T03:54:00.239Z,87.44
2018-05-03T03:56:26.097Z,87.98
2018-05-03T03:58:51.925Z,88.41
2018-05-03T04:01:17.777Z,88.92
2018-05-03T04:03:43.641Z,88.84
2018-05-03T04:06:09.508Z,89.13
2018-05-03T04:08:35.347Z,88.96
2018-05-03T04:11:01.209Z,88.34
2018-05-03T04:13:27.104Z,88.24
2018-05-03T04:15:52.976Z,88.12
2018-05-03T04:18:31.127Z,88.28
2018-05-03T04:21:09.182Z,87.97
2018-05-03T04:23:47.305Z,87.79
2018-05-03T04:26:13.158Z,87.87
2018-05-03T04:28:39.041Z,87.35
2018-05-03T04:31:04.897Z,87.14
2018-05-03T04:33:30.776Z,87.65
2018-05-03T04:35:56.586Z,86.34
2018-05-03T04:38:22.456Z,86.53
2018-05-03T04:40:48.316Z,86.53
2018-05-03T04:43:14.152Z,86.21
2018-05-03T04:45:40.025Z,85.74
2018-05-03T04:48:05.855Z,84.98
2018-05-03T04:50:31.830Z,84.61
2018-05-03T04:52:57.699Z,83.30
2018-05-03T04:55:23.585Z,84.29
2018-05-03T04:57:49.413Z,84.22
2018-05-03T05:00:15.298Z,83.78
2018-05-03T05:02:41.141Z,84.05
2018-05-03T05:05:06.968Z,83.51
2018-05-03T05:07:32.829Z,84.03
2018-05-03T05:09:58.711Z,83.98
2018-05-03T05:12:24.593Z,84.11
2018-05-03T05:14:50.456Z,84.05
2018-05-03T05:17:16.325Z,83.52
2018-05-03T05:19:42.185Z,83.55
2018-05-03T05:22:08.040Z,83.47
2018-05-03T05:24:33.882Z,83.53
2018-05-03T05:26:59.759Z,83.33
2018-05-03T05:29:25.643Z,82.70
2018-05-03T05:31:51.493Z,82.34
2018-05-03T05:34:17.360Z,81.76
2018-05-03T05:36:43.211Z,81.29
2018-05-03T05:39:09.097Z,81.35
2018-05-03T05:41:34.960Z,79.77
2018-05-03T05:44:00.883Z,79.89
2018-05-03T05:46:26.725Z,80.27
2018-05-03T05:48:52.580Z,78.18
2018-05-03T05:51:18.452Z,78.14
2018-05-03T05:53:44.307Z,78.65
2018-05-03T05:56:10.161Z,77.50
2018-05-03T05:58:35.984Z,77.75
2018-05-03T06:01:01.846Z,76.83
2018-05-03T06:03:27.665Z,75.24
2018-05-03T06:05:53.533Z,75.80
2018-05-03T06:08:19.364Z,73.57
2018-05-03T06:10:45.243Z,75.05
2018-05-03T06:13:11.096Z,75.28
2018-05-03T06:15:36.984Z,74.21
2018-05-03T06:18:02.856Z,73.95
2018-05-03T06:20:28.713Z,74.48
2018-05-03T06:22:54.564Z,74.00
2018-05-03T06:25:20.408Z,75.19
2018-05-03T06:27:46.263Z,74.91
2018-05-03T06:30:12.111Z,73.56
2018-05-03T06:32:37.994Z,72.61
2018-05-03T06:35:03.926Z,73.33
2018-05-03T06:37:29.785Z,72.71
2018-05-03T06:39:55.652Z,72.59
2018-05-03T06:42:21.511Z,71.84
2018-05-03T06:44:47.381Z,70.84
2018-05-03T06:47:13.269Z,70.22
2018-05-03T06:49:39.110Z,68.84
2018-05-03T06:52:04.987Z,68.49
2018-05-03T06:54:30.837Z,68.47
2018-05-03T06:56:56.680Z,68.79
2018-05-03T06:59:22.538Z,67.93
2018-05-03T07:01:48.380Z,68.04
2018-05-03T07:04:14.276Z,68.07
2018-05-03T07:06:40.095Z,67.89
2018-05-03T07:09:05.932Z,68.48
2018-05-03T07:11:31.817Z,68.73
2018-05-03T07:13:57.693Z,67.84
2018-05-03T07:16:23.616Z,68.06
2018-05-03T07:18:49.401Z,67.57
2018-05-03T07:21:15.245Z,67.55
2018-05-03T07:23:41.112Z,67.52
2018-05-03T07:26:07.013Z,67.28
2018-05-03T07:28:32.837Z,67.07
2018-05-03T07:30:58.724Z,66.00
2018-05-03T07:33:24.593Z,65.85
2018-05-03T07:35:50.481Z,65.30
2018-05-03T07:38:16.332Z,65.57
2018-05-03T07:40:42.259Z,65.89
2018-05-03T07:43:08.031Z,65.79
2018-05-03T07:45:33.873Z,65.09
2018-05-03T07:47:59.707Z,64.74
2018-05-03T07:50:25.569Z,63.98
2018-05-03T07:52:51.425Z,64.24
2018-05-03T07:55:17.295Z,64.45
2018-05-03T07:57:43.140Z,63.90
2018-05-03T08:00:09.007Z,64.62
2018-05-03T08:02:34.864Z,64.20
2018-05-03T08:05:00.745Z,64.28
2018-05-03T08:07:26.594Z,63.66
2018-05-03T08:09:52.438Z,63.49
2018-05-03T08:12:18.284Z,63.18
2018-05-03T08:14:44.095Z,63.48
2018-05-03T08:17:10.054Z,63.18
2018-05-03T08:19:35.801Z,63.16
2018-05-03T08:22:01.653Z,63.06
2018-05-03T08:24:27.511Z,62.04
2018-05-03T08:26:53.347Z,62.36
2018-05-03T08:29:19.193Z,61.34
2018-05-03T08:31:45.037Z,61.06
2018-05-03T08:34:10.909Z,61.42
2018-05-03T08:36:36.809Z,59.81
2018-05-03T08:39:02.735Z,59.19
2018-05-03T08:41:28.601Z,59.16
2018-05-03T08:43:54.492Z,58.01
2018-05-03T08:46:20.341Z,58.15
2018-05-03T08:48:46.213Z,55.97
2018-05-03T08:51:12.044Z,55.60
2018-05-03T08:53:37.908Z,54.14
2018-05-03T08:56:03.781Z,53.92
2018-05-03T08:58:29.605Z,53.59
2018-05-03T09:00:55.506Z,53.83
2018-05-03T09:03:21.319Z,53.83
2018-05-03T09:05:47.157Z,52.97
2018-05-03T09:08:13.008Z,52.71
2018-05-03T09:10:38.849Z,52.65
2018-05-03T09:13:04.693Z,51.96
2018-05-03T09:15:30.541Z,49.80
2018-05-03T09:17:56.424Z,50.24
2018-05-03T09:20:22.269Z,51.26
2018-05-03T09:22:48.156Z,49.43
2018-05-03T09:25:13.985Z,49.59
2018-05-03T09:27:39.893Z,50.17
2018-05-03T09:30:05.709Z,48.98
2018-05-03T09:32:31.529Z,49.47
2018-05-03T09:34:57.369Z,50.63
2018-05-03T09:37:23.221Z,50.01
2018-05-03T09:39:49.069Z,50.41
2018-05-03T09:42:14.916Z,51.72
2018-05-03T09:44:40.840Z,50.19
2018-05-03T09:47:06.608Z,49.87
2018-05-03T09:49:32.432Z,50.13
2018-05-03T09:51:58.267Z,50.01
2018-05-03T09:54:24.089Z,50.19
2018-05-03T09:56:49.941Z,50.58
2018-05-03T09:59:15.773Z,50.49
2018-05-03T10:01:41.673Z,50.17
2018-05-03T10:04:07.569Z,50.55
2018-05-03T10:06:33.430Z,49.78
2018-05-03T10:08:59.267Z,51.29
2018-05-03T10:11:25.105Z,50.82
2018-05-03T10:13:50.946Z,49.75
2018-05-03T10:16:16.824Z,50.42
2018-05-03T10:18:42.664Z,49.93
2018-05-03T10:21:08.530Z,50.51
2018-05-03T10:23:34.356Z,50.71
2018-05-03T10:26:00.220Z,50.35
2018-05-03T10:28:26.073Z,50.35
2018-05-03T10:30:51.920Z,50.28
2018-05-03T10:33:17.759Z,50.01
2018-05-03T10:35:43.703Z,49.95
2018-05-03T10:38:09.491Z,49.50
2018-05-03T10:40:35.328Z,50.30
2018-05-03T10:43:01.213Z,50.63
2018-05-03T10:45:27.076Z,50.04
2018-05-03T10:47:52.927Z,49.75
2018-05-03T10:50:18.767Z,49.90
2018-05-03T10:52:44.648Z,49.88
2018-05-03T10:55:10.496Z,49.76
2018-05-03T10:57:36.368Z,49.00
2018-05-03T11:00:02.273Z,49.24
2018-05-03T11:02:28.104Z,47.94
2018-05-03T11:04:53.916Z,47.77
2018-05-03T11:07:19.794Z,48.00
2018-05-03T11:09:45.633Z,48.42
2018-05-03T11:12:11.495Z,48.74
2018-05-03T11:14:37.353Z,48.92
2018-05-03T11:17:03.211Z,48.96
2018-05-03T11:19:29.074Z,49.84
2018-05-03T11:21:54.922Z,50.44
2018-05-03T11:24:20.776Z,49.70
2018-05-03T11:26:46.605Z,50.40
2018-05-03T11:29:12.481Z,49.94
2018-05-03T11:31:38.362Z,49.19
2018-05-03T11:34:04.273Z,49.57
2018-05-03T11:36:30.140Z,51.07
2018-05-03T11:38:55.981Z,51.09
2018-05-03T11:41:21.856Z,50.80
2018-05-03T11:43:47.730Z,51.96
2018-05-03T11:46:13.620Z,52.09
2018-05-03T11:48:39.456Z,51.80
2018-05-03T11:51:05.400Z,51.58
2018-05-03T11:53:31.280Z,51.58
2018-05-03T11:55:57.131Z,51.83
2018-05-03T11:58:22.984Z,51.18
2018-05-03T12:00:48.876Z,51.43
2018-05-03T12:03:14.733Z,50.89
2018-05-03T12:05:40.613Z,50.00
2018-05-03T12:08:06.456Z,48.74
2018-05-03T12:10:32.291Z,49.78
2018-05-03T12:12:58.149Z,49.11
2018-05-03T12:15:23.985Z,49.92
2018-05-03T12:17:49.831Z,48.53
2018-05-03T12:20:15.683Z,47.24
2018-05-03T12:22:41.550Z,45.79
2018-05-03T12:25:07.393Z,44.89
2018-05-03T12:27:33.238Z,43.88
2018-05-03T12:29:59.065Z,44.96
2018-05-03T12:32:24.918Z,43.70
2018-05-03T12:34:50.852Z,42.66
2018-05-03T12:37:16.613Z,44.20
2018-05-03T12:39:42.450Z,43.23
2018-05-03T12:42:08.284Z,45.62
2018-05-03T12:44:34.145Z,46.11
2018-05-03T12:46:59.995Z,44.64
2018-05-03T12:49:25.884Z,44.21
2018-05-03T12:51:51.830Z,46.40
2018-05-03T12:54:17.626Z,44.78
2018-05-03T12:56:43.490Z,44.68
2018-05-03T12:59:09.373Z,45.50
2018-05-03T13:01:35.253Z,45.99
2018-05-03T13:04:01.124Z,47.94
2018-05-03T13:06:26.995Z,47.49
2018-05-03T13:08:52.829Z,46.71
2018-05-03T13:11:18.686Z,47.20
2018-05-03T13:13:44.525Z,46.95
2018-05-03T13:16:10.401Z,46.49
2018-05-03T13:18:36.293Z,46.64
2018-05-03T13:21:02.165Z,44.68
2018-05-03T13:23:28.030Z,44.69
2018-05-03T13:25:53.992Z,43.65
2018-05-03T13:28:19.845Z,44.62
2018-05-03T13:30:45.690Z,45.05
2018-05-03T13:33:11.529Z,44.14
2018-05-03T13:35:37.354Z,43.66
2018-05-03T13:38:03.204Z,43.17
2018-05-03T13:40:29.042Z,43.52
2018-05-03T13:42:54.920Z,43.43
2018-05-03T13:45:20.778Z,43.69
2018-05-03T13:47:46.659Z,44.53
2018-05-03T13:50:12.502Z,44.96
2018-05-03T13:52:38.369Z,44.02
2018-05-03T13:55:04.377Z,45.25
2018-05-03T13:57:30.247Z,45.91
2018-05-03T13:59:56.111Z,45.36
2018-05-03T14:02:21.975Z,46.44
2018-05-03T14:04:47.844Z,45.79
2018-05-03T14:07:13.750Z,45.18
2018-05-03T14:09:39.614Z,45.16
2018-05-03T14:12:05.472Z,45.34
2018-05-03T14:14:31.357Z,45.73
2018-05-03T14:16:57.251Z,46.86
2018-05-03T14:19:23.090Z,46.22
2018-05-03T14:21:48.936Z,46.96
2018-05-03T14:24:14.773Z,47.64
2018-05-03T14:26:40.621Z,46.16
2018-05-03T14:29:06.483Z,47.60
2018-05-03T14:31:32.345Z,47.37
2018-05-03T14:33:58.185Z,48.01
2018-05-03T14:38:49.849Z,48.53
2018-05-03T14:41:15.741Z,49.03
2018-05-03T14:43:41.586Z,48.71
2018-05-03T14:46:07.475Z,47.88
2018-05-03T14:48:35.843Z,47.89
2018-05-03T14:51:05.043Z,47.91
2018-05-03T14:53:33.629Z,49.15
2018-05-03T14:56:01.906Z,48.55
2018-05-03T14:58:29.985Z,48.53
2018-05-03T15:00:58.481Z,48.33
2018-05-03T15:03:27.015Z,48.28
2018-05-03T15:05:56.111Z,48.17
2018-05-03T15:08:24.729Z,48.76
2018-05-03T15:10:50.741Z,48.79
2018-05-03T15:13:16.676Z,48.71
2018-05-03T15:15:42.517Z,49.25
2018-05-03T15:18:08.440Z,49.51
2018-05-03T15:20:34.301Z,49.60
2018-05-03T15:23:00.194Z,48.62
2018-05-03T15:25:26.082Z,48.74
2018-05-03T15:27:51.965Z,48.93
2018-05-03T15:30:17.864Z,48.95
2018-05-03T15:32:43.757Z,48.30
2018-05-03T15:35:09.682Z,48.93
2018-05-03T15:37:35.601Z,49.33
2018-05-03T15:40:01.485Z,49.31
2018-05-03T15:42:27.392Z,49.36
2018-05-03T15:44:53.362Z,49.70
2018-05-03T15:47:19.201Z,49.79
2018-05-03T15:49:45.184Z,49.61
2018-05-03T15:52:11.165Z,49.89
2018-05-03T15:54:37.025Z,49.94
2018-05-03T15:57:02.937Z,50.08
2018-05-03T15:59:28.855Z,50.11
2018-05-03T16:01:54.708Z,50.26
2018-05-03T16:04:20.548Z,50.93
2018-05-03T16:06:46.426Z,50.61
2018-05-03T16:09:12.317Z,51.12
2018-05-03T16:11:38.180Z,51.11
2018-05-03T16:14:04.053Z,50.75
2018-05-03T16:16:29.910Z,51.10
2018-05-03T16:18:55.844Z,50.72
2018-05-03T16:21:21.710Z,50.98
2018-05-03T16:23:47.575Z,51.18
2018-05-03T16:26:13.402Z,51.21
2018-05-03T16:28:39.274Z,51.67
2018-05-03T16:31:05.233Z,51.64
2018-05-03T16:33:31.112Z,51.29
2018-05-03T16:35:56.965Z,51.63
2018-05-03T16:38:22.799Z,51.53
2018-05-03T16:40:48.755Z,51.18
2018-05-03T16:43:14.537Z,51.36
2018-05-03T16:45:40.446Z,51.74
2018-05-03T16:48:06.263Z,52.05
2018-05-03T16:50:32.104Z,52.44
2018-05-03T16:52:57.975Z,52.83
2018-05-03T16:55:23.873Z,53.13
2018-05-03T16:57:49.729Z,53.49
2018-05-03T17:00:15.701Z,53.40
2018-05-03T17:02:41.569Z,53.19
2018-05-03T17:05:07.446Z,53.54
2018-05-03T17:07:33.330Z,53.52
2018-05-03T17:09:59.187Z,53.45
2018-05-03T17:12:25.059Z,53.80
2018-05-03T17:14:50.924Z,54.18
2018-05-03T17:17:16.857Z,54.61
2018-05-03T17:19:42.742Z,55.04
2018-05-03T17:22:08.598Z,54.79
2018-05-03T17:24:34.487Z,54.98
2018-05-03T17:27:00.413Z,55.10
2018-05-03T17:29:26.240Z,55.55
2018-05-03T17:31:52.085Z,55.78
2018-05-03T17:34:17.956Z,55.54
2018-05-03T17:36:43.851Z,55.84
2018-05-03T17:39:09.812Z,56.13
2018-05-03T17:41:35.653Z,56.74
2018-05-03T17:44:01.530Z,56.99
2018-05-03T17:46:27.371Z,57.04
2018-05-03T17:48:53.256Z,56.88
2018-05-03T17:51:19.223Z,57.17
2018-05-03T17:53:45.041Z,57.24
2018-05-03T17:56:10.935Z,57.37
2018-05-03T17:58:36.832Z,57.23
2018-05-03T18:01:02.773Z,57.46
2018-05-03T18:03:28.667Z,57.31
2018-05-03T18:05:54.548Z,57.83
2018-05-03T18:08:20.468Z,58.17
2018-05-03T18:10:46.354Z,58.27
2018-05-03T18:13:12.346Z,58.82
2018-05-03T18:15:38.248Z,58.14
2018-05-03T18:18:04.130Z,59.10
2018-05-03T18:20:30.014Z,59.08
2018-05-03T18:22:55.953Z,59.13
2018-05-03T18:25:21.844Z,59.15
2018-05-03T18:27:47.735Z,59.09
2018-05-03T18:30:13.615Z,59.25
2018-05-03T18:32:39.552Z,59.48
2018-05-03T18:35:05.425Z,59.66
2018-05-03T18:37:31.301Z,59.60
2018-05-03T18:39:57.189Z,59.80
2018-05-03T18:42:23.044Z,60.31
2018-05-03T18:44:48.873Z,60.03
2018-05-03T18:47:14.782Z,60.28
2018-05-03T18:49:40.646Z,60.21
2018-05-03T18:52:06.511Z,60.60
2018-05-03T18:54:32.413Z,60.76
2018-05-03T18:56:58.259Z,60.65
2018-05-03T18:59:24.127Z,60.93
2018-05-03T19:01:50.005Z,60.73
2018-05-03T19:04:15.929Z,60.74
2018-05-03T19:06:41.810Z,60.76
2018-05-03T19:09:07.716Z,60.55
2018-05-03T19:11:33.883Z,60.21
2018-05-03T19:13:59.789Z,60.07
2018-05-03T19:16:25.697Z,60.61
2018-05-03T19:18:51.584Z,59.80
2018-05-03T19:21:17.445Z,60.15
2018-05-03T19:23:43.407Z,60.14
2018-05-03T19:26:09.218Z,60.21
2018-05-03T19:28:35.103Z,60.11
2018-05-03T19:31:01.040Z,60.42
2018-05-03T19:33:26.936Z,59.99
2018-05-03T19:35:52.777Z,59.47
2018-05-03T19:38:18.654Z,59.83
2018-05-03T19:40:44.553Z,59.96
2018-05-03T19:43:10.458Z,60.10
2018-05-03T19:45:36.396Z,60.13
2018-05-03T19:48:02.282Z,60.31
2018-05-03T19:50:28.202Z,59.88
2018-05-03T19:52:54.051Z,60.20
2018-05-03T19:55:19.927Z,60.13
2018-05-03T19:57:45.754Z,60.12
2018-05-03T20:00:11.617Z,60.58
2018-05-03T20:02:44.336Z,60.52
2018-05-03T20:05:10.192Z,60.61
2018-05-03T20:07:36.074Z,60.87
2018-05-03T20:10:01.983Z,60.66
2018-05-03T20:12:27.960Z,60.87
2018-05-03T20:14:53.867Z,61.25
2018-05-03T20:17:19.778Z,60.97
2018-05-03T20:19:45.668Z,61.24
2018-05-03T20:22:11.555Z,61.16
2018-05-03T20:24:37.402Z,61.32
2018-05-03T20:27:03.264Z,61.53
2018-05-03T20:29:29.140Z,61.42
2018-05-03T20:31:55.000Z,61.43
2018-05-03T20:34:20.874Z,61.36
2018-05-03T20:36:46.702Z,61.42
2018-05-03T20:39:12.606Z,61.10
2018-05-03T20:41:38.446Z,61.01
2018-05-03T20:44:04.304Z,61.19
2018-05-03T20:46:30.152Z,61.21
2018-05-03T20:48:56.000Z,60.80
2018-05-03T20:51:21.841Z,60.97
2018-05-03T20:53:47.713Z,61.15
2018-05-03T20:56:13.603Z,60.96
2018-05-03T20:58:39.441Z,60.92
2018-05-03T21:01:05.284Z,61.15
2018-05-03T21:03:31.144Z,60.93
2018-05-03T21:05:57.022Z,61.13
2018-05-03T21:08:22.870Z,61.55
2018-05-03T21:10:48.712Z,61.07
2018-05-03T21:13:14.579Z,61.16
2018-05-03T21:15:40.451Z,61.15
2018-05-03T21:18:06.326Z,60.82
2018-05-03T21:20:32.157Z,61.22
2018-05-03T21:22:58.001Z,61.24
2018-05-03T21:25:23.829Z,60.90
2018-05-03T21:27:49.665Z,60.89
2018-05-03T21:30:15.518Z,61.01
2018-05-03T21:32:41.396Z,60.98
2018-05-03T21:35:07.232Z,60.69
2018-05-03T21:37:33.181Z,61.02
2018-05-03T21:39:58.964Z,61.01
2018-05-03T21:42:24.777Z,61.26
2018-05-03T21:44:50.612Z,61.48
2018-05-03T21:47:16.452Z,61.44
2018-05-03T21:49:42.297Z,61.57
2018-05-03T21:52:08.236Z,61.69
2018-05-03T21:54:34.100Z,61.44
2018-05-03T21:56:59.951Z,61.43
2018-05-03T21:59:25.812Z,61.31
2018-05-03T22:01:51.661Z,61.36
2018-05-03T22:04:17.536Z,61.37
2018-05-03T22:06:43.366Z,61.15
2018-05-03T22:09:09.269Z,61.08
2018-05-03T22:11:35.092Z,60.95
2018-05-03T22:14:01.045Z,60.95
2018-05-03T22:16:26.804Z,61.44
2018-05-03T22:18:52.671Z,61.00
2018-05-03T22:21:18.537Z,61.65
2018-05-03T22:23:44.378Z,61.67
2018-05-03T22:26:10.232Z,60.97
2018-05-03T22:28:36.058Z,61.23
2018-05-03T22:31:01.921Z,60.97
2018-05-03T22:33:27.778Z,60.91
2018-05-03T22:35:53.632Z,60.93
2018-05-03T22:38:19.501Z,61.16
2018-05-03T22:40:45.401Z,61.04
2018-05-03T22:43:11.225Z,61.10
2018-05-03T22:45:37.092Z,60.92
2018-05-03T22:48:02.950Z,60.92
2018-05-03T22:50:28.769Z,61.00
2018-05-03T22:52:54.605Z,61.10
2018-05-03T22:55:20.469Z,60.95
2018-05-03T22:57:46.330Z,61.36
2018-05-03T23:00:12.212Z,61.32
2018-05-03T23:02:38.061Z,60.92
2018-05-03T23:05:03.902Z,61.10
2018-05-03T23:07:29.773Z,61.42
2018-05-03T23:09:55.675Z,61.56
2018-05-03T23:12:21.553Z,61.86
2018-05-03T23:14:47.405Z,62.10
2018-05-03T23:17:13.265Z,62.08
2018-05-03T23:19:39.161Z,62.50
2018-05-03T23:22:05.013Z,62.70
2018-05-03T23:24:30.860Z,62.12
2018-05-03T23:26:56.725Z,62.49
2018-05-03T23:29:22.552Z,62.36
2018-05-03T23:31:48.386Z,62.58
2018-05-03T23:34:14.249Z,62.74
2018-05-03T23:36:40.094Z,62.35
2018-05-03T23:39:05.917Z,62.79
2018-05-03T23:41:31.784Z,63.36
2018-05-03T23:43:57.637Z,63.00
2018-05-03T23:46:23.480Z,63.29
2018-05-03T23:48:49.344Z,63.24
2018-05-03T23:51:15.208Z,63.26
2018-05-03T23:53:41.052Z,63.19
2018-05-03T23:56:06.890Z,63.51
2018-05-03T23:58:32.713Z,63.12
